Time;durP1;ratioP1;P1;durP2;ratioP2;P2;SDS_P1;SDS_P2;PMS_P1;PMS_P2;Temp;Humidity;BMP_temperature;BMP_pressure;BME280_temperature;BME280_humidity;BME280_pressure;Samples;Min_cycle;Max_cycle;Signal;HPM_P1;HPM_P2
2022/09/27 00:00:51;;;;;;;19.75;12.25;;;;;;;10.11;100.00;96826.81;2643566;27;20511;-79
2022/09/27 00:02:19;;;;;;;19.30;11.30;;;;;;;9.86;100.00;96820.22;2641598;27;20051;-78
2022/09/27 00:03:34;;;;;;;16.63;10.27;;;;;;;9.95;100.00;96824.13;2643032;27;20691;-78
2022/09/27 00:04:50;;;;;;;16.23;9.90;;;;;;;9.78;100.00;96822.38;2642749;27;20047;-78
2022/09/27 00:06:22;;;;;;;19.13;12.38;;;;;;;9.93;100.00;96816.38;2644807;27;20055;-78
2022/09/27 00:07:37;;;;;;;18.85;11.43;;;;;;;10.03;100.00;96819.34;2643928;27;20049;-78
2022/09/27 00:08:53;;;;;;;25.15;14.10;;;;;;;10.11;100.00;96818.97;2642460;27;20058;-77
2022/09/27 00:10:09;;;;;;;26.73;14.48;;;;;;;9.94;100.00;96817.22;2643361;27;20051;-78
2022/09/27 00:11:32;;;;;;;24.58;15.02;;;;;;;9.95;100.00;96814.53;2641494;27;20513;-78
2022/09/27 00:12:47;;;;;;;23.42;13.75;;;;;;;10.05;100.00;96814.88;2641643;27;20043;-78
2022/09/27 00:14:05;;;;;;;22.45;13.45;;;;;;;10.13;100.00;96811.88;2643822;27;20054;-78
2022/09/27 00:15:20;;;;;;;21.23;14.10;;;;;;;10.00;100.00;96804.66;2643142;27;20211;-78
2022/09/27 00:16:38;;;;;;;27.60;15.80;;;;;;;9.98;100.00;96797.81;2643020;27;20089;-77
2022/09/27 00:17:54;;;;;;;26.52;14.40;;;;;;;9.95;100.00;96798.84;2642521;27;20071;-77
2022/09/27 00:19:12;;;;;;;26.50;15.45;;;;;;;9.77;100.00;96791.94;2642896;27;20063;-77
2022/09/27 00:20:28;;;;;;;25.27;14.68;;;;;;;9.78;100.00;96788.38;2641235;27;20047;-78
2022/09/27 00:21:45;;;;;;;24.90;14.38;;;;;;;9.66;100.00;96785.50;2641966;27;20062;-77
2022/09/27 00:23:00;;;;;;;26.20;15.52;;;;;;;9.61;100.00;96783.13;2643476;27;20130;-79
2022/09/27 00:24:21;;;;;;;26.35;15.20;;;;;;;9.59;100.00;96779.75;2643273;27;20634;-79
2022/09/27 00:25:37;;;;;;;21.38;12.93;;;;;;;9.47;100.00;96775.97;2642303;27;20473;-78
2022/09/27 00:26:53;;;;;;;23.10;12.65;;;;;;;9.72;100.00;96774.72;2641608;27;20051;-78
2022/09/27 00:28:08;;;;;;;21.33;12.38;;;;;;;9.80;100.00;96776.94;2643067;27;20054;-79
2022/09/27 00:29:24;;;;;;;19.33;10.88;;;;;;;9.92;100.00;96775.47;2633248;28;20577;-79
2022/09/27 00:30:43;;;;;;;15.82;8.18;;;;;;;9.82;100.00;96769.03;2636329;27;20074;-82
2022/09/27 00:31:59;;;;;;;11.07;7.78;;;;;;;9.84;100.00;96765.41;2641246;27;20578;-78
2022/09/27 00:33:14;;;;;;;15.55;8.23;;;;;;;9.94;100.00;96757.09;2643569;27;20047;-79
2022/09/27 00:34:30;;;;;;;13.93;8.38;;;;;;;9.89;100.00;96754.72;2641571;27;20481;-78
2022/09/27 00:35:45;;;;;;;11.77;7.22;;;;;;;9.94;100.00;96754.47;2643796;27;20074;-77
2022/09/27 00:37:01;;;;;;;12.75;7.38;;;;;;;9.86;100.00;96757.50;2641869;27;20070;-79
2022/09/27 00:38:17;;;;;;;12.30;7.40;;;;;;;9.91;100.00;96752.84;2644281;27;20055;-79
2022/09/27 00:39:32;;;;;;;9.60;6.85;;;;;;;10.01;100.00;96756.69;2643909;27;20188;-78
2022/09/27 00:40:48;;;;;;;14.80;7.10;;;;;;;10.00;100.00;96749.75;2640627;27;20126;-78
2022/09/27 00:42:05;;;;;;;13.73;8.20;;;;;;;9.84;100.00;96749.72;2641502;27;20107;-80
2022/09/27 00:43:22;;;;;;;11.38;7.55;;;;;;;10.00;100.00;96754.16;2641279;27;20383;-78
2022/09/27 00:44:38;;;;;;;11.98;7.75;;;;;;;9.91;100.00;96746.78;2640928;27;20052;-79
2022/09/27 00:45:58;;;;;;;14.13;7.82;;;;;;;10.13;100.00;96746.50;2641256;27;20414;-77
2022/09/27 00:47:38;;;;;;;12.52;8.10;;;;;;;10.18;100.00;96749.69;2642129;27;20156;-78
2022/09/27 00:49:26;;;;;;;12.25;7.95;;;;;;;10.05;100.00;96741.69;2628434;27;20059;-78
2022/09/27 00:50:47;;;;;;;15.07;7.63;;;;;;;10.21;100.00;96739.09;2622474;27;20082;-78
2022/09/27 00:52:31;;;;;;;11.48;6.45;;;;;;;10.28;100.00;96732.59;2644032;27;20048;-78
2022/09/27 00:53:52;;;;;;;10.38;6.60;;;;;;;10.14;100.00;96725.50;2642874;27;20048;-81
2022/09/27 00:55:18;;;;;;;12.43;6.95;;;;;;;10.13;100.00;96725.56;2641520;27;20069;-78
2022/09/27 00:56:35;;;;;;;11.60;6.00;;;;;;;10.17;100.00;96720.09;2642166;27;20047;-80
2022/09/27 00:57:51;;;;;;;10.63;5.75;;;;;;;10.16;100.00;96722.78;2641477;27;20096;-78
2022/09/27 00:59:24;;;;;;;10.18;5.97;;;;;;;10.27;100.00;96717.00;2644399;27;20051;-78
2022/09/27 01:00:44;;;;;;;10.05;5.75;;;;;;;10.14;100.00;96717.66;2642833;27;20063;-78
2022/09/27 01:02:03;;;;;;;7.82;4.80;;;;;;;10.27;100.00;96717.00;2641514;27;20525;-79
2022/09/27 01:03:36;;;;;;;7.40;4.90;;;;;;;10.34;100.00;96717.47;2644613;27;20523;-78
2022/09/27 01:04:54;;;;;;;11.73;5.35;;;;;;;10.25;100.00;96719.69;2641529;27;20678;-80
2022/09/27 01:06:10;;;;;;;8.60;5.82;;;;;;;10.20;100.00;96720.84;2641102;27;20089;-79
2022/09/27 01:07:26;;;;;;;10.80;7.05;;;;;;;10.20;100.00;96715.63;2640994;27;20043;-81
2022/09/27 01:08:41;;;;;;;11.85;6.80;;;;;;;10.18;100.00;96724.41;2641477;27;20546;-79
2022/09/27 01:09:57;;;;;;;13.07;7.70;;;;;;;10.39;100.00;96710.25;2642753;27;20075;-78
2022/09/27 01:11:19;;;;;;;12.05;8.07;;;;;;;10.39;100.00;96711.06;2641050;28;20059;-77
2022/09/27 01:12:46;;;;;;;15.32;7.82;;;;;;;10.37;100.00;96710.31;2641553;27;20043;-78
2022/09/27 01:14:23;;;;;;;11.02;7.18;;;;;;;10.35;100.00;96708.72;2642515;27;20431;-79
2022/09/27 01:15:49;;;;;;;13.63;6.40;;;;;;;10.34;100.00;96707.00;2631821;28;20051;-78
2022/09/27 01:17:26;;;;;;;12.00;6.45;;;;;;;10.19;100.00;96696.47;2635670;28;20634;-81
2022/09/27 01:19:13;;;;;;;12.00;6.68;;;;;;;10.26;100.00;96695.22;2642807;27;20477;-78
2022/09/27 01:21:05;;;;;;;9.48;6.15;;;;;;;10.17;100.00;96688.72;2642194;27;20055;-78
2022/09/27 01:22:27;;;;;;;10.82;6.22;;;;;;;10.14;100.00;96688.03;2644047;27;20051;-78
2022/09/27 01:24:05;;;;;;;9.43;5.82;;;;;;;10.29;100.00;96684.56;2641199;27;20079;-78
2022/09/27 01:25:36;;;;;;;9.55;5.72;;;;;;;10.35;100.00;96682.56;2643609;27;20047;-78
2022/09/27 01:27:12;;;;;;;7.28;4.68;;;;;;;10.35;100.00;96679.94;2641738;27;20047;-78
2022/09/27 01:28:49;;;;;;;9.95;5.30;;;;;;;10.48;100.00;96681.00;2623540;27;20133;-78
2022/09/27 01:30:30;;;;;;;7.47;4.47;;;;;;;10.38;100.00;96672.75;2642013;27;20046;-81
2022/09/27 01:32:04;;;;;;;8.25;5.00;;;;;;;10.34;100.00;96665.16;2641053;27;20043;-83
2022/09/27 01:33:43;;;;;;;9.20;4.93;;;;;;;10.31;100.00;96660.97;2644336;28;20421;-79
2022/09/27 01:35:06;;;;;;;7.90;4.75;;;;;;;10.41;100.00;96672.63;2641561;28;20391;-79
2022/09/27 01:36:53;;;;;;;9.35;4.70;;;;;;;10.50;100.00;96667.81;2640835;28;20052;-78
2022/09/27 01:38:24;;;;;;;10.35;5.22;;;;;;;10.44;100.00;96663.75;2641522;28;20058;-81
2022/09/27 01:40:13;;;;;;;11.60;4.40;;;;;;;10.52;100.00;96663.31;2642002;28;20615;-80
2022/09/27 01:41:44;;;;;;;6.43;4.60;;;;;;;10.58;100.00;96661.19;2641742;28;20051;-78
2022/09/27 01:43:06;;;;;;;7.97;4.40;;;;;;;10.39;100.00;96658.75;2643550;28;20112;-79
2022/09/27 01:44:43;;;;;;;;;;;;;;;10.56;100.00;96657.00;2641902;28;20146;-78
2022/09/27 01:46:07;;;;;;;7.18;4.28;;;;;;;10.48;100.00;96646.97;2642174;28;20365;-79
2022/09/27 01:47:30;;;;;;;8.60;5.00;;;;;;;10.38;100.00;96641.38;2641485;28;20066;-78
2022/09/27 01:48:49;;;;;;;7.13;4.78;;;;;;;10.25;100.00;96641.22;2641874;28;20072;-78
2022/09/27 01:50:10;;;;;;;8.35;4.50;;;;;;;10.41;100.00;96636.00;2643195;28;20051;-78
2022/09/27 01:51:42;;;;;;;7.47;5.23;;;;;;;10.59;100.00;96641.94;2643555;28;20397;-80
2022/09/27 01:53:07;;;;;;;7.30;4.78;;;;;;;10.66;100.00;96639.00;2642626;28;20456;-78
2022/09/27 01:54:29;;;;;;;10.65;4.72;;;;;;;10.62;100.00;96640.13;2642841;28;20409;-78
2022/09/27 01:55:47;;;;;;;7.85;4.57;;;;;;;10.66;100.00;96636.38;2643246;28;20086;-78
2022/09/27 01:57:06;;;;;;;7.53;4.53;;;;;;;10.79;100.00;96629.50;2643048;28;20532;-78
2022/09/27 01:58:28;;;;;;;6.90;4.35;;;;;;;10.69;100.00;96634.44;2642683;28;20051;-78
2022/09/27 01:59:49;;;;;;;7.45;4.47;;;;;;;10.58;100.00;96628.97;2643420;28;20055;-78
2022/09/27 02:01:08;;;;;;;5.72;3.97;;;;;;;10.74;100.00;96628.91;2641063;28;20051;-78
2022/09/27 02:02:27;;;;;;;6.05;3.92;;;;;;;10.84;100.00;96627.44;2641524;28;20556;-77
2022/09/27 02:03:48;;;;;;;5.25;3.75;;;;;;;10.77;100.00;96625.28;2643168;28;20485;-79
2022/09/27 02:05:08;;;;;;;10.55;5.03;;;;;;;10.78;100.00;96625.22;2643002;28;20058;-78
2022/09/27 02:06:46;;;;;;;6.30;4.10;;;;;;;10.82;100.00;96621.47;2642422;28;20152;-79
2022/09/27 02:08:06;;;;;;;6.57;4.22;;;;;;;10.63;100.00;96619.06;2643011;28;20557;-81
2022/09/27 02:09:29;;;;;;;6.97;4.18;;;;;;;10.72;100.00;96613.31;2643484;28;20083;-78
2022/09/27 02:10:47;;;;;;;7.38;4.13;;;;;;;10.81;100.00;96605.84;2642992;28;20051;-78
2022/09/27 02:12:07;;;;;;;9.30;4.50;;;;;;;10.78;100.00;96604.25;2642438;28;20048;-77
2022/09/27 02:13:58;;;;;;;7.25;4.18;;;;;;;10.71;100.00;96597.69;2643430;28;20093;-78
2022/09/27 02:15:15;;;;;;;7.30;4.32;;;;;;;10.73;100.00;96595.81;2608789;28;20135;-79
2022/09/27 02:16:49;;;;;;;7.70;4.57;;;;;;;10.74;100.00;96590.50;2640883;28;20058;-78
2022/09/27 02:18:16;;;;;;;6.53;4.43;;;;;;;10.68;100.00;96590.84;2640570;28;21209;-78
2022/09/27 02:19:42;;;;;;;7.85;4.70;;;;;;;10.55;100.00;96595.13;2643981;28;20070;-83
2022/09/27 02:21:00;;;;;;;6.38;4.57;;;;;;;10.62;100.00;96593.84;2640413;28;20426;-79
2022/09/27 02:22:52;;;;;;;8.30;4.85;;;;;;;10.76;100.00;96600.91;2643052;28;20052;-79
2022/09/27 02:24:15;;;;;;;6.28;4.07;;;;;;;10.65;100.00;96593.66;2587363;28;20472;-78
2022/09/27 02:25:40;;;;;;;8.23;4.45;;;;;;;10.57;100.00;96588.03;2642385;28;20058;-79
2022/09/27 02:27:05;;;;;;;6.88;4.10;;;;;;;10.73;100.00;96580.97;2642180;28;20078;-78
2022/09/27 02:28:36;;;;;;;5.45;3.80;;;;;;;10.97;100.00;96575.22;2642285;28;20043;-78
2022/09/27 02:30:08;;;;;;;5.55;3.92;;;;;;;10.85;100.00;96574.16;2642005;27;20051;-78
2022/09/27 02:31:25;;;;;;;5.68;4.28;;;;;;;10.88;100.00;96570.53;2642471;27;20081;-78
2022/09/27 02:32:42;;;;;;;4.95;3.65;;;;;;;10.95;100.00;96565.75;2644663;27;20056;-78
2022/09/27 02:34:10;;;;;;;6.03;3.50;;;;;;;10.94;100.00;96572.75;2644618;27;20129;-78
2022/09/27 02:35:32;;;;;;;6.32;4.05;;;;;;;10.98;100.00;96557.72;2643855;27;20478;-77
2022/09/27 02:36:49;;;;;;;6.40;3.88;;;;;;;11.09;100.00;96554.44;2644346;27;20043;-78
2022/09/27 02:38:06;;;;;;;4.72;3.22;;;;;;;11.06;100.00;96557.25;2644557;27;20066;-79
2022/09/27 02:39:23;;;;;;;11.75;3.80;;;;;;;11.18;100.00;96545.22;2644998;27;20051;-78
2022/09/27 02:40:44;;;;;;;5.55;3.53;;;;;;;11.29;100.00;96543.59;2645672;27;20075;-79
2022/09/27 02:42:01;;;;;;;6.15;3.70;;;;;;;11.42;100.00;96543.69;2644878;27;20126;-79
2022/09/27 02:43:19;;;;;;;5.75;3.67;;;;;;;11.30;100.00;96544.44;2643024;27;20051;-78
2022/09/27 02:44:34;;;;;;;4.32;3.03;;;;;;;11.19;100.00;96539.03;2644316;27;20059;-78
2022/09/27 02:46:10;;;;;;;4.60;3.30;;;;;;;11.30;100.00;96542.66;2645207;27;20444;-78
2022/09/27 02:47:44;;;;;;;5.53;3.15;;;;;;;11.29;100.00;96546.22;2644324;27;20051;-77
2022/09/27 02:49:19;;;;;;;5.80;3.15;;;;;;;11.24;100.00;96535.16;2644199;27;20048;-79
2022/09/27 02:50:51;;;;;;;5.32;3.22;;;;;;;11.38;100.00;96533.47;2643086;27;20051;-78
2022/09/27 02:52:28;;;;;;;3.58;2.58;;;;;;;11.33;100.00;96533.78;2643429;27;20188;-79
2022/09/27 02:54:02;;;;;;;5.15;2.88;;;;;;;11.37;100.00;96535.28;2643714;27;20948;-78
2022/09/27 02:55:29;;;;;;;6.00;3.05;;;;;;;11.36;100.00;96530.97;2642502;27;20574;-78
2022/09/27 02:56:57;;;;;;;4.47;3.30;;;;;;;11.40;100.00;96534.25;2644590;27;20043;-79
2022/09/27 02:58:16;;;;;;;5.63;3.30;;;;;;;11.58;100.00;96532.22;2642002;27;20468;-78
2022/09/27 03:00:15;;;;;;;5.13;2.95;;;;;;;11.57;100.00;96526.16;2644082;27;20127;-79
2022/09/27 03:01:46;;;;;;;4.43;3.17;;;;;;;11.62;100.00;96531.13;2630911;27;20048;-80
2022/09/27 03:03:12;;;;;;;4.65;3.10;;;;;;;11.50;100.00;96532.72;2642263;27;20512;-79
2022/09/27 03:04:43;;;;;;;3.88;3.03;;;;;;;11.54;100.00;96529.00;2643819;27;20084;-78
2022/09/27 03:06:07;;;;;;;4.45;3.15;;;;;;;11.68;100.00;96525.47;2644392;27;20051;-78
2022/09/27 03:07:23;;;;;;;5.47;3.08;;;;;;;11.63;100.00;96527.56;2641771;27;20051;-79
2022/09/27 03:08:40;;;;;;;5.25;2.97;;;;;;;11.76;100.00;96525.00;2644128;27;20082;-78
2022/09/27 03:09:56;;;;;;;4.35;2.63;;;;;;;11.42;100.00;96522.72;2644690;27;20441;-78
2022/09/27 03:11:12;;;;;;;3.28;2.90;;;;;;;11.46;100.00;96528.63;2643488;27;20647;-78
2022/09/27 03:12:28;;;;;;;5.30;3.20;;;;;;;11.56;100.00;96521.88;2643137;27;20560;-79
2022/09/27 03:13:44;;;;;;;5.63;3.10;;;;;;;11.64;100.00;96523.16;2645592;27;20055;-78
2022/09/27 03:14:59;;;;;;;8.10;3.60;;;;;;;11.59;100.00;96515.56;2644214;27;20129;-78
2022/09/27 03:16:15;;;;;;;4.90;3.47;;;;;;;11.58;100.00;96517.38;2642150;27;20048;-78
2022/09/27 03:17:31;;;;;;;5.30;3.45;;;;;;;11.82;100.00;96515.91;2642987;27;20051;-78
2022/09/27 03:18:46;;;;;;;7.47;4.22;;;;;;;11.61;100.00;96518.97;2644113;27;20398;-78
2022/09/27 03:20:02;;;;;;;4.72;3.85;;;;;;;11.85;100.00;96513.06;2645159;27;20413;-77
2022/09/27 03:21:18;;;;;;;9.40;4.68;;;;;;;11.64;100.00;96510.91;2642858;27;20047;-77
2022/09/27 03:22:37;;;;;;;5.88;4.28;;;;;;;11.63;100.00;96509.22;2645430;27;20051;-77
2022/09/27 03:23:52;;;;;;;6.05;4.28;;;;;;;11.71;100.00;96516.59;2644016;27;20065;-77
2022/09/27 03:25:08;;;;;;;4.93;4.00;;;;;;;11.70;100.00;96515.72;2643231;27;20047;-78
2022/09/27 03:26:24;;;;;;;5.13;3.72;;;;;;;11.82;100.00;96511.50;2643512;27;20456;-79
2022/09/27 03:27:40;;;;;;;8.52;3.30;;;;;;;11.84;100.00;96514.88;2643828;27;20124;-80
2022/09/27 03:28:56;;;;;;;5.05;3.90;;;;;;;11.91;100.00;96510.06;2643966;27;20043;-79
2022/09/27 03:30:13;;;;;;;5.72;4.30;;;;;;;11.99;100.00;96507.78;2642147;27;20512;-80
2022/09/27 03:31:29;;;;;;;5.88;4.03;;;;;;;11.85;100.00;96507.81;2642089;27;20102;-79
2022/09/27 03:32:45;;;;;;;4.25;3.70;;;;;;;11.73;100.00;96502.47;2642933;27;20412;-80
2022/09/27 03:34:00;;;;;;;4.80;3.85;;;;;;;11.95;100.00;96505.47;2643121;27;20130;-77
2022/09/27 03:35:16;;;;;;;4.75;3.65;;;;;;;11.82;100.00;96511.50;2643813;27;20056;-77
2022/09/27 03:36:32;;;;;;;6.25;3.83;;;;;;;11.98;100.00;96500.84;2642401;27;20052;-78
2022/09/27 03:37:48;;;;;;;4.65;3.42;;;;;;;11.88;100.00;96507.66;2644797;27;20121;-78
2022/09/27 03:39:03;;;;;;;4.45;3.28;;;;;;;11.77;100.00;96504.88;2644005;27;20063;-78
2022/09/27 03:40:19;;;;;;;5.00;3.28;;;;;;;11.78;100.00;96503.94;2643301;27;20054;-80
2022/09/27 03:41:34;;;;;;;5.53;3.45;;;;;;;11.95;100.00;96505.47;2643956;27;20051;-77
2022/09/27 03:42:50;;;;;;;5.00;3.13;;;;;;;11.71;100.00;96503.47;2643391;27;20085;-78
2022/09/27 03:44:06;;;;;;;5.35;3.20;;;;;;;11.83;100.00;96507.09;2641520;27;20051;-82
2022/09/27 03:45:22;;;;;;;3.78;2.92;;;;;;;11.84;100.00;96506.16;2644767;27;20054;-78
2022/09/27 03:46:37;;;;;;;5.25;3.08;;;;;;;11.75;100.00;96512.00;2642048;27;20035;-77
2022/09/27 03:47:53;;;;;;;3.30;2.58;;;;;;;11.55;100.00;96495.75;2643553;27;20046;-77
2022/09/27 03:49:09;;;;;;;7.10;2.80;;;;;;;11.80;100.00;96502.06;2644904;27;20040;-82
2022/09/27 03:50:24;;;;;;;3.17;2.55;;;;;;;11.78;100.00;96502.13;2644541;27;20047;-82
2022/09/27 03:51:41;;;;;;;5.13;2.95;;;;;;;11.65;100.00;96499.47;2643858;27;20051;-77
2022/09/27 03:52:57;;;;;;;3.35;2.33;;;;;;;11.65;100.00;96501.22;2641836;27;20058;-76
2022/09/27 03:54:12;;;;;;;3.58;2.28;;;;;;;11.56;100.00;96500.03;2642536;27;20044;-79
2022/09/27 03:55:28;;;;;;;3.92;2.45;;;;;;;11.91;100.00;96496.09;2643613;27;20054;-79
2022/09/27 03:56:44;;;;;;;4.03;2.30;;;;;;;11.54;100.00;96494.91;2643150;27;20043;-78
2022/09/27 03:58:00;;;;;;;3.13;2.40;;;;;;;11.66;100.00;96489.81;2642255;27;20054;-79
2022/09/27 03:59:18;;;;;;;3.58;2.35;;;;;;;11.55;100.00;96493.13;2642818;27;20047;-76
2022/09/27 04:00:36;;;;;;;3.25;2.28;;;;;;;11.51;100.00;96484.59;2642427;27;20044;-79
2022/09/27 04:01:51;;;;;;;3.15;2.28;;;;;;;11.59;100.00;96478.88;2642897;27;20047;-77
2022/09/27 04:03:07;;;;;;;3.42;2.40;;;;;;;11.91;100.00;96481.22;2641944;27;20596;-78
2022/09/27 04:04:23;;;;;;;3.17;2.20;;;;;;;11.79;100.00;96487.25;2645138;27;20043;-78
2022/09/27 04:05:39;;;;;;;2.92;2.20;;;;;;;11.81;100.00;96481.00;2641008;27;20047;-78
2022/09/27 04:06:55;;;;;;;4.07;2.60;;;;;;;11.81;100.00;96480.13;2644173;27;20108;-78
2022/09/27 04:08:12;;;;;;;3.78;2.40;;;;;;;11.82;100.00;96476.56;2642102;27;20048;-77
2022/09/27 04:09:28;;;;;;;2.78;2.17;;;;;;;11.63;100.00;96474.28;2643279;27;20484;-80
2022/09/27 04:10:44;;;;;;;3.40;2.30;;;;;;;11.73;100.00;96480.63;2642656;27;20108;-78
2022/09/27 04:11:59;;;;;;;3.55;2.40;;;;;;;11.77;100.00;96473.41;2642663;27;20135;-77
2022/09/27 04:13:16;;;;;;;3.50;2.45;;;;;;;11.83;100.00;96473.00;2645080;27;20074;-78
2022/09/27 04:14:32;;;;;;;4.72;2.50;;;;;;;11.76;100.00;96472.56;2640897;27;20058;-78
2022/09/27 04:15:47;;;;;;;3.85;2.20;;;;;;;11.73;100.00;96478.00;2642291;27;20050;-81
2022/09/27 04:17:03;;;;;;;2.50;2.08;;;;;;;11.90;100.00;96470.81;2643431;27;20055;-78
2022/09/27 04:18:19;;;;;;;6.00;2.60;;;;;;;11.87;100.00;96472.72;2642211;27;20524;-77
2022/09/27 04:19:35;;;;;;;6.15;2.60;;;;;;;12.05;100.00;96471.66;2641306;27;20042;-77
2022/09/27 04:20:51;;;;;;;3.17;2.45;;;;;;;11.82;100.00;96469.56;2642605;27;20049;-77
2022/09/27 04:22:07;;;;;;;3.22;2.35;;;;;;;11.80;100.00;96470.59;2643544;27;20052;-77
2022/09/27 04:23:23;;;;;;;3.92;2.25;;;;;;;11.83;100.00;96462.50;2643397;27;20055;-78
2022/09/27 04:24:38;;;;;;;3.95;1.92;;;;;;;11.89;100.00;96466.53;2643975;27;20046;-77
2022/09/27 04:25:54;;;;;;;3.00;2.20;;;;;;;11.91;100.00;96469.88;2643276;27;20058;-77
2022/09/27 04:27:09;;;;;;;4.97;2.38;;;;;;;12.00;100.00;96471.91;2642776;27;20091;-76
2022/09/27 04:28:26;;;;;;;3.25;2.10;;;;;;;11.80;100.00;96471.41;2641826;27;20425;-77
2022/09/27 04:29:44;;;;;;;2.55;1.90;;;;;;;11.83;100.00;96479.09;2640872;27;20477;-84
2022/09/27 04:31:00;;;;;;;2.72;2.13;;;;;;;11.86;100.00;96472.78;2644961;27;20540;-79
2022/09/27 04:32:15;;;;;;;4.82;2.15;;;;;;;11.96;100.00;96471.25;2642649;27;20050;-77
2022/09/27 04:33:31;;;;;;;2.22;1.88;;;;;;;11.73;100.00;96470.16;2641003;27;20051;-78
2022/09/27 04:36:28;;;;;;;3.90;2.30;;;;;;;11.89;100.00;96461.28;2643771;27;20490;-79
2022/09/27 04:37:44;;;;;;;2.45;1.92;;;;;;;11.98;100.00;96466.75;2642187;27;20058;-79
2022/09/27 04:39:03;;;;;;;3.63;2.55;;;;;;;11.88;100.00;96463.06;2642673;27;20039;-77
2022/09/27 04:40:21;;;;;;;5.20;2.25;;;;;;;11.92;100.00;96469.78;2641695;27;20043;-78
2022/09/27 04:41:36;;;;;;;2.30;1.80;;;;;;;11.81;100.00;96470.50;2642042;27;20126;-79
2022/09/27 04:42:52;;;;;;;3.42;2.00;;;;;;;11.87;100.00;96461.38;2643420;27;20481;-79
2022/09/27 04:44:08;;;;;;;4.00;1.98;;;;;;;12.04;100.00;96465.53;2642727;27;20406;-78
2022/09/27 04:45:23;;;;;;;5.28;2.10;;;;;;;12.11;100.00;96471.22;2644203;27;20060;-81
2022/09/27 04:46:39;;;;;;;3.60;1.90;;;;;;;12.04;100.00;96465.53;2643890;27;20560;-79
2022/09/27 04:47:54;;;;;;;4.38;1.77;;;;;;;12.06;100.00;96468.06;2641929;27;20054;-79
2022/09/27 04:49:10;;;;;;;2.60;1.63;;;;;;;11.75;100.00;96464.81;2642299;27;20104;-78
2022/09/27 04:50:26;;;;;;;2.92;1.83;;;;;;;11.90;100.00;96462.97;2641598;27;20066;-79
2022/09/27 04:51:41;;;;;;;2.45;1.77;;;;;;;11.87;100.00;96464.00;2642064;27;20409;-79
2022/09/27 04:52:57;;;;;;;2.47;1.80;;;;;;;11.92;100.00;96467.16;2642578;27;20463;-78
2022/09/27 04:54:13;;;;;;;2.53;1.95;;;;;;;11.90;100.00;96468.19;2631520;28;20051;-78
2022/09/27 04:55:28;;;;;;;2.70;2.03;;;;;;;11.97;100.00;96469.50;2633913;28;20051;-78
2022/09/27 04:56:44;;;;;;;3.28;2.20;;;;;;;11.90;100.00;96466.44;2642659;27;20584;-78
2022/09/27 04:58:00;;;;;;;2.53;1.85;;;;;;;11.99;100.00;96465.81;2642480;27;20638;-78
2022/09/27 04:59:16;;;;;;;2.53;1.73;;;;;;;11.91;100.00;96469.88;2642494;27;20056;-79
2022/09/27 05:00:31;;;;;;;2.65;1.60;;;;;;;11.93;100.00;96468.00;2644546;27;20078;-77
2022/09/27 05:01:48;;;;;;;2.10;1.63;;;;;;;12.05;100.00;96463.78;2643544;27;20054;-79
2022/09/27 05:03:03;;;;;;;2.08;1.73;;;;;;;11.96;100.00;96468.66;2642482;27;20641;-78
2022/09/27 05:04:19;;;;;;;2.00;1.48;;;;;;;11.91;100.00;96468.13;2644627;27;20081;-79
2022/09/27 05:05:34;;;;;;;2.60;1.70;;;;;;;12.00;100.00;96466.66;2642641;27;20053;-78
2022/09/27 05:06:50;;;;;;;2.15;1.60;;;;;;;11.96;100.00;96471.25;2640444;27;20051;-80
2022/09/27 05:08:06;;;;;;;2.83;1.50;;;;;;;12.01;100.00;96465.72;2642194;27;20047;-79
2022/09/27 05:09:22;;;;;;;2.55;1.77;;;;;;;11.96;100.00;96463.41;2640857;27;20504;-77
2022/09/27 05:10:37;;;;;;;3.30;1.70;;;;;;;12.09;100.00;96466.09;2641081;27;20048;-78
2022/09/27 05:11:53;;;;;;;1.73;1.50;;;;;;;12.05;100.00;96472.47;2629561;28;20051;-78
2022/09/27 05:13:08;;;;;;;2.30;1.70;;;;;;;12.04;100.00;96467.34;2629573;28;20538;-77
2022/09/27 05:14:25;;;;;;;2.38;1.80;;;;;;;12.12;100.00;96472.91;2634580;27;20051;-78
2022/09/27 05:15:41;;;;;;;2.97;2.00;;;;;;;12.14;100.00;96469.25;2641838;27;20046;-78
2022/09/27 05:16:57;;;;;;;3.47;1.70;;;;;;;12.17;100.00;96467.38;2642773;27;20047;-78
2022/09/27 05:18:12;;;;;;;3.53;2.00;;;;;;;12.13;100.00;96464.09;2643973;27;20394;-77
2022/09/27 05:19:28;;;;;;;3.63;2.00;;;;;;;12.11;100.00;96471.22;2641569;27;20074;-78
2022/09/27 05:20:44;;;;;;;3.55;1.90;;;;;;;12.13;100.00;96467.56;2642510;27;20104;-77
2022/09/27 05:21:59;;;;;;;2.88;1.50;;;;;;;12.13;100.00;96469.34;2643285;27;20054;-77
2022/09/27 05:23:15;;;;;;;2.55;1.50;;;;;;;12.12;100.00;96463.28;2643665;27;20070;-78
2022/09/27 05:24:32;;;;;;;2.58;1.60;;;;;;;12.08;100.00;96466.19;2629936;28;20051;-82
2022/09/27 05:25:47;;;;;;;1.80;1.35;;;;;;;12.16;100.00;96458.66;2636693;27;20455;-78
2022/09/27 05:27:06;;;;;;;4.68;1.65;;;;;;;12.13;100.00;96462.31;2642720;27;20051;-78
2022/09/27 05:28:23;;;;;;;2.35;1.55;;;;;;;12.12;100.00;96462.41;2642381;27;20449;-78
2022/09/27 05:29:39;;;;;;;2.55;1.40;;;;;;;12.12;100.00;96463.28;2643043;27;20058;-77
2022/09/27 05:30:54;;;;;;;3.00;1.80;;;;;;;12.10;100.00;96461.69;2643234;27;20062;-84
2022/09/27 05:32:10;;;;;;;3.60;1.92;;;;;;;12.28;100.00;96463.06;2641829;27;20051;-78
2022/09/27 05:33:26;;;;;;;6.30;2.60;;;;;;;12.35;100.00;96458.25;2629585;28;20056;-77
2022/09/27 05:34:42;;;;;;;4.68;2.33;;;;;;;12.20;100.00;96464.53;2635001;28;20874;-80
2022/09/27 05:35:58;;;;;;;4.35;2.13;;;;;;;12.19;100.00;96457.59;2642803;28;20047;-77
2022/09/27 05:37:13;;;;;;;5.63;2.35;;;;;;;12.20;100.00;96460.13;2632335;28;20116;-77
2022/09/27 05:38:29;;;;;;;3.65;2.05;;;;;;;12.13;100.00;96459.69;2635742;28;20766;-79
2022/09/27 05:39:45;;;;;;;4.75;2.47;;;;;;;12.14;100.00;96460.53;2641913;28;20054;-79
2022/09/27 05:41:00;;;;;;;4.00;2.25;;;;;;;12.13;100.00;96459.69;2641865;28;20048;-79
2022/09/27 05:42:16;;;;;;;5.07;2.42;;;;;;;12.09;100.00;96454.75;2643609;28;20057;-78
2022/09/27 05:43:31;;;;;;;5.45;2.50;;;;;;;12.17;100.00;96452.47;2643803;28;20039;-81
2022/09/27 05:44:47;;;;;;;3.72;2.20;;;;;;;12.13;100.00;96457.09;2642918;28;20043;-84
2022/09/27 05:46:04;;;;;;;4.55;2.55;;;;;;;12.04;100.00;96457.69;2641634;28;20043;-79
2022/09/27 05:47:19;;;;;;;5.75;2.28;;;;;;;12.14;100.00;96464.00;2643227;28;20639;-78
2022/09/27 05:48:35;;;;;;;4.07;2.25;;;;;;;12.20;100.00;96456.66;2641460;28;20054;-78
2022/09/27 05:49:52;;;;;;;3.47;1.90;;;;;;;11.94;100.00;96457.41;2641550;28;20054;-77
2022/09/27 05:51:08;;;;;;;3.00;1.60;;;;;;;12.10;100.00;96465.16;2632120;28;20079;-77
2022/09/27 05:52:24;;;;;;;3.05;1.55;;;;;;;12.02;100.00;96461.38;2634558;28;20048;-78
2022/09/27 05:53:39;;;;;;;2.38;1.50;;;;;;;12.06;100.00;96462.84;2642027;28;20082;-76
2022/09/27 05:54:57;;;;;;;1.98;1.30;;;;;;;12.04;100.00;96457.69;2640310;28;20149;-78
2022/09/27 05:56:12;;;;;;;2.67;1.20;;;;;;;12.00;100.00;96458.81;2642203;28;20490;-78
2022/09/27 05:57:28;;;;;;;3.05;1.33;;;;;;;12.09;100.00;96463.47;2642981;28;20522;-77
2022/09/27 05:58:43;;;;;;;2.75;1.55;;;;;;;12.06;100.00;96457.59;2642647;28;20055;-78
2022/09/27 05:59:59;;;;;;;1.83;1.20;;;;;;;11.96;100.00;96463.41;2641689;28;20491;-77
2022/09/27 06:01:15;;;;;;;1.48;1.05;;;;;;;11.97;100.00;96459.84;2643969;28;20104;-77
2022/09/27 06:02:31;;;;;;;1.52;1.20;;;;;;;12.07;100.00;96467.97;2643847;28;20888;-77
2022/09/27 06:03:46;;;;;;;1.65;1.10;;;;;;;12.07;100.00;96461.88;2642193;28;20098;-78
2022/09/27 06:05:02;;;;;;;1.55;1.10;;;;;;;12.09;100.00;96458.22;2643637;27;20586;-77
2022/09/27 06:06:18;;;;;;;3.38;1.20;;;;;;;12.12;100.00;96463.28;2643294;27;20059;-77
2022/09/27 06:07:34;;;;;;;1.52;1.10;;;;;;;12.13;100.00;96469.34;2643981;27;20065;-76
2022/09/27 06:08:49;;;;;;;1.23;1.02;;;;;;;12.09;100.00;96471.34;2644296;27;20058;-77
2022/09/27 06:10:05;;;;;;;2.97;1.20;;;;;;;12.14;100.00;96471.88;2645934;27;20141;-77
2022/09/27 06:11:21;;;;;;;1.40;1.10;;;;;;;12.14;100.00;96471.88;2645053;27;20138;-76
2022/09/27 06:12:37;;;;;;;1.80;1.00;;;;;;;12.08;100.00;96459.19;2643378;27;20118;-76
2022/09/27 06:13:53;;;;;;;1.95;0.90;;;;;;;12.03;100.00;96461.25;2643380;27;20047;-77